METAR Data
IDs: Format: Raw Decoded Include TAF

Data at: 2059 UTC 18 Oct 2018

METAR for:KHCR (Heber City Muni, UT, US)
Text:KHCR 182035Z AUTO 23004KT 10SM CLR 15/M05 A3022 RMK AO2
Temperature: 15.0°C ( 59°F)
Dewpoint: -5.0°C ( 23°F) [RH = 25%]
Pressure (altimeter):30.22 inches Hg (1023.5 mb)
Winds:from the SW (230 degrees) at 5 MPH (4 knots; 2.1 m/s)
Visibility:10 or more sm (16+ km)
Ceiling:at least 12,000 feet AGL
Clouds:sky clear below 12,000 feet AGL
QC Flag:automated observation with no human augmentation